TNCC/CUR METAR and TAF weather

Enter ICAO airport designator
Station Type Date Time Source
TNCC METAR 2021/09/23 22:00 UTC NOAA

TNCC 232200Z 08012KT 9999 FEW018 30/27 Q1008 NOSIG


Station Type Date Time Source
TNCC Decoded METAR 2021/09/23 22:00 UTC NOAA

Hato Airport, Curacao, Netherlands Antilles (TNCC) 12-12N 068-58W 67M
Sep 23, 2021 - 06:00 PM EDT / 2021.09.23 2200 UTC
Wind: from the E (080 degrees) at 14 MPH (12 KT):0
Visibility: greater than 7 mile(s):0
Sky conditions: mostly clear
Temperature: 86 F (30 C)
Heat index: 101.8 F (38.8 C):1
Dew Point: 80 F (27 C)
Relative Humidity: 84%
Pressure (altimeter): 29.77 in. Hg (1008 hPa)
ob: TNCC 232200Z 08012KT 9999 FEW018 30/27 Q1008 NOSIG
cycle: 22

Station Type Date Time Source
TNCC TAF 2021/09/23 18:27 UTC NOAA

TAF TNCC 231715Z 2318/2418 12011KT 9999 SCT022

Example: see airport list